Hatsu Envoy — VSQL9 — position and weather

sailwx.info

Track history (hours):
 
Tides and Currents Weather Stations Pressure Air Temp Water Temp Dewpoint Dewpoint Depression Visibility Wind Speed Wind Dir Waves Ship Positions

Hatsu Envoy

Last reported at 2017-Apr-08 07:55 UTC. Time now 2017-Apr-24 17:22 UTC.
Position N 38°10' W 123°54'.
Warning: this ship's position is 16 days out of date.

Type: Cargo ship. MMSI: 235414000.

Date/timePositionNaut miles runAvg speedWind from/ knotsBaromVisibWave heightAir tempDewpointWater temp
2017-Apr-08 07:55N 38°10' W 123°54'410.9
2017-Apr-08 07:30N 38°10' W 123°48'510.9
2017-Apr-08 07:00N 38°10' W 123°41'611.0
2017-Apr-08 06:30N 38°10' W 123°34'611.0
2017-Apr-08 06:00N 38°10' W 123°27'510.2
2017-Apr-08 05:30N 38°10' W 123°21'5 9.7
2017-Apr-08 05:00N 38°06' W 123°17'5 9.1
2017-Apr-08 04:30N 38°02' W 123°13'5 9.4
2017-Apr-08 04:00N 37°59' W 123°09'4 9.1
2017-Apr-08 03:30N 37°57' W 123°04'510.0
2017-Apr-08 03:00N 37°54' W 122°59'611.2
2017-Apr-08 02:30N 37°51' W 122°52'611.1
2017-Apr-08 02:00N 37°49' W 122°46'611.5
2017-Apr-08 01:30N 37°45' W 122°40'613.0
2017-Apr-08 01:00N 37°48' W 122°33'714.3
2017-Apr-08 00:30N 37°49' W 122°24'3 5.4
2017-Apr-08 00:00N 37°48' W 122°20'0 0.0
2017-Apr-07 23:30N 37°49' W 122°20'0 0.0
2017-Apr-07 23:00N 37°48' W 122°20'0 0.0
2017-Apr-07 22:30N 37°49' W 122°20'0 0.0
2017-Apr-07 22:00N 37°48' W 122°20'0 0.0
2017-Apr-07 21:29N 37°48' W 122°20'0 0.0
2017-Apr-07 21:00N 37°48' W 122°20'0 0.0
2017-Apr-07 20:30N 37°48' W 122°20'0 0.0
2017-Apr-07 19:58N 37°49' W 122°20'0 0.0
2017-Apr-07 19:28N 37°49' W 122°20'0 0.0
2017-Apr-07 18:58N 37°49' W 122°20'0 0.0
2017-Apr-07 18:28N 37°48' W 122°20'0 0.0
2017-Apr-07 17:58N 37°48' W 122°20'0 0.0
2017-Apr-07 17:28N 37°48' W 122°20'0 0.0
2017-Apr-07 16:58N 37°49' W 122°20'0 0.0
2017-Apr-07 16:28N 37°49' W 122°20'0 0.0
2017-Apr-07 15:58N 37°49' W 122°20'0 0.0
2017-Apr-07 15:28N 37°49' W 122°20'0 0.0
2017-Apr-07 14:58N 37°48' W 122°20'0 0.0
2017-Apr-07 14:28N 37°49' W 122°20'0 0.0
2017-Apr-07 13:28N 37°48' W 122°20'0 0.0
2017-Apr-07 12:58N 37°48' W 122°20'0 0.0
2017-Apr-07 12:28N 37°49' W 122°20'0 0.0
2017-Apr-07 11:58N 37°49' W 122°20'0 0.0
2017-Apr-07 11:28N 37°48' W 122°20'0 0.0
2017-Apr-07 10:58N 37°48' W 122°20'0 0.0
2017-Apr-07 10:28N 37°48' W 122°20'0 0.0
2017-Apr-07 09:58N 37°49' W 122°20'0 0.0
2017-Apr-07 09:28N 37°49' W 122°20'0 0.0
2017-Apr-07 08:58N 37°49' W 122°20'0 0.0
2017-Apr-07 08:28N 37°49' W 122°20'0 0.0
2017-Apr-07 07:58N 37°49' W 122°20'0 0.0
2017-Apr-07 07:28N 37°49' W 122°20'0 0.0
2017-Apr-07 06:58N 37°48' W 122°20'0 0.0
2017-Apr-07 06:28N 37°49' W 122°20'0 0.0
2017-Apr-07 05:58N 37°49' W 122°20'0 0.0
2017-Apr-07 05:28N 37°49' W 122°20'0 0.0
2017-Apr-07 04:58N 37°48' W 122°20'0 0.0
2017-Apr-07 04:28N 37°49' W 122°20'0 0.0
2017-Apr-07 03:58N 37°49' W 122°20'0 0.0
2017-Apr-07 03:28N 37°49' W 122°20'0 0.0
2017-Apr-07 02:58N 37°49' W 122°20'0 0.0
2017-Apr-07 02:31N 37°49' W 122°20'0 0.0
2017-Apr-07 01:59N 37°48' W 122°20'0 0.0
2017-Apr-07 01:29N 37°49' W 122°20'0 0.0
2017-Apr-07 00:59N 37°49' W 122°20'0 0.0
2017-Apr-07 00:29N 37°49' W 122°20'0 0.0
2017-Apr-06 23:59N 37°49' W 122°20'0 0.0
2017-Apr-06 23:29N 37°49' W 122°20'0 0.0
2017-Apr-06 22:59N 37°48' W 122°20'0 0.0
2017-Apr-06 22:29N 37°49' W 122°20'0 0.0
2017-Apr-06 21:59N 37°49' W 122°20'0 0.0
2017-Apr-06 21:29N 37°48' W 122°20'0 0.0
2017-Apr-06 20:59N 37°49' W 122°20'0 0.0
2017-Apr-06 20:29N 37°49' W 122°20'0 0.0
2017-Apr-06 19:59N 37°49' W 122°20'0 0.0
2017-Apr-06 19:29N 37°48' W 122°20'0 0.0
2017-Apr-06 19:00N 37°49' W 122°20'0 0.0
2017-Apr-06 18:31N 37°49' W 122°20'0 0.0
2017-Apr-06 18:00N 37°48' W 122°20'0 0.0
2017-Apr-06 17:30N 37°48' W 122°20'0 0.0
2017-Apr-06 17:01N 37°49' W 122°20'0 0.0
2017-Apr-06 16:31N 37°49' W 122°20'0 0.0
2017-Apr-06 16:00N 37°48' W 122°20'0 0.0
2017-Apr-06 15:30N 37°49' W 122°20'0 0.0
2017-Apr-06 15:00N 37°48' W 122°20'0 0.0
2017-Apr-06 14:30N 37°48' W 122°20'0 0.0
2017-Apr-06 13:30N 37°49' W 122°20'1 1.1
2017-Apr-06 13:00N 37°49' W 122°20'1 1.4
2017-Apr-06 12:31N 37°48' W 122°21'4 8.9
2017-Apr-06 12:01N 37°49' W 122°26'713.0
2017-Apr-06 11:30N 37°47' W 122°34'612.6
2017-Apr-06 11:01N 37°44' W 122°41'5 9.5
2017-Apr-06 10:30N 37°40' W 122°40'5 9.7
2017-Apr-06 10:00N 37°35' W 122°39'5 9.6
2017-Apr-06 09:30N 37°30' W 122°39'5 9.7
2017-Apr-06 09:00N 37°25' W 122°39'5 9.7
2017-Apr-06 08:30N 37°20' W 122°39'611.3
2017-Apr-06 08:00N 37°15' W 122°39'612.4
2017-Apr-06 07:30N 37°09' W 122°38'612.4
2017-Apr-06 07:01N 37°03' W 122°36'612.5
2017-Apr-06 06:30N 36°57' W 122°34'612.8
2017-Apr-06 06:00N 36°51' W 122°31'612.8
2017-Apr-06 05:30N 36°44' W 122°29'612.8
2017-Apr-06 05:00N 36°38' W 122°28'612.6
2017-Apr-06 04:30N 36°32' W 122°26'1 2.8
2017-Apr-06 04:00N 36°31' W 122°26'0 0.3
2017-Apr-06 03:30N 36°31' W 122°26'0 0.5
2017-Apr-06 03:00N 36°31' W 122°26'0 0.6
2017-Apr-06 02:30N 36°31' W 122°26'0 0.8
2017-Apr-06 02:00N 36°32' W 122°26'0 0.7
2017-Apr-06 01:30N 36°32' W 122°26'0 0.7
2017-Apr-06 01:00N 36°32' W 122°26'0 0.7
2017-Apr-06 00:30N 36°33' W 122°26'0 0.7
2017-Apr-06 00:00N 36°33' W 122°26'0 0.9
2017-Apr-05 23:30N 36°33' W 122°26'0 0.9
2017-Apr-05 23:00N 36°34' W 122°26'0 0.8
2017-Apr-05 22:30N 36°34' W 122°26'0 0.7
2017-Apr-05 22:00N 36°35' W 122°26'0 0.5
2017-Apr-05 21:30N 36°35' W 122°26'0 0.6
2017-Apr-05 21:00N 36°35' W 122°26'0 0.7
2017-Apr-05 20:30N 36°35' W 122°25'0 0.8
2017-Apr-05 20:00N 36°35' W 122°25'0 0.8
2017-Apr-05 19:30N 36°36' W 122°25'0 0.6
2017-Apr-05 19:00N 36°36' W 122°24'0 0.2
2017-Apr-05 18:30N 36°36' W 122°24'0 0.9
2017-Apr-05 18:00N 36°35' W 122°24'4 7.8
2017-Apr-05 17:30N 36°32' W 122°23'611.6
2017-Apr-05 17:00N 36°26' W 122°20'611.1
2017-Apr-05 16:30N 36°21' W 122°17'511.2
2017-Apr-05 16:00N 36°16' W 122°14'510.8
2017-Apr-05 15:30N 36°12' W 122°11'611.6
2017-Apr-05 15:00N 36°07' W 122°07'1212.1
2017-Apr-05 14:00N 35°56' W 121°59'612.2
2017-Apr-05 13:30N 35°51' W 121°55'611.8
2017-Apr-05 13:00N 35°46' W 121°51'612.0
2017-Apr-05 12:30N 35°41' W 121°48'612.2
2017-Apr-05 12:00N 35°35' W 121°45'611.8
2017-Apr-05 11:30N 35°30' W 121°41'611.5
2017-Apr-05 11:00N 35°25' W 121°38'611.5
2017-Apr-05 10:30N 35°20' W 121°35'611.4
2017-Apr-05 10:00N 35°15' W 121°31'611.1
2017-Apr-05 09:30N 35°10' W 121°28'611.1
2017-Apr-05 09:00N 35°05' W 121°25'510.7
2017-Apr-05 08:30N 35°01' W 121°22'611.1
2017-Apr-05 08:00N 34°56' W 121°19'611.3
2017-Apr-05 07:30N 34°51' W 121°16'611.6
2017-Apr-05 07:00N 34°46' W 121°12'611.2
2017-Apr-05 06:31N 34°41' W 121°09'611.3
2017-Apr-05 06:00N 34°36' W 121°06'611.3
2017-Apr-05 05:31N 34°31' W 121°03'611.2
2017-Apr-05 05:00N 34°26' W 120°60'611.4
2017-Apr-05 04:30N 34°20' W 120°56'510.9
2017-Apr-05 04:00N 34°16' W 120°53'510.8
2017-Apr-05 03:30N 34°11' W 120°50'510.8
2017-Apr-05 03:00N 34°06' W 120°47'611.3
2017-Apr-05 02:30N 34°01' W 120°44'611.0
2017-Apr-05 02:00N 33°56' W 120°41'611.1
2017-Apr-05 01:29N 33°52' W 120°36'511.1
2017-Apr-05 01:01N 33°48' W 120°32'611.1
2017-Apr-05 00:30N 33°44' W 120°27'610.9
2017-Apr-05 00:00N 33°40' W 120°22'510.3
2017-Apr-04 23:30N 33°36' W 120°18'1 1.7
2017-Apr-04 23:00N 33°36' W 120°19'1 1.0
2017-Apr-04 22:28N 33°36' W 120°20'1 3.2
2017-Apr-04 22:00N 33°36' W 120°18'611.8
2017-Apr-04 21:30N 33°37' W 120°11'612.1
2017-Apr-04 21:00N 33°38' W 120°04'611.8
2017-Apr-04 20:30N 33°39' W 119°57'4 7.1
2017-Apr-04 20:00N 33°40' W 119°53'0 0.9
2017-Apr-04 19:30N 33°39' W 119°53'3 5.5
2017-Apr-04 19:00N 33°39' W 119°49'611.8
2017-Apr-04 18:30N 33°38' W 119°42'611.9
2017-Apr-04 18:00N 33°38' W 119°35'611.8
2017-Apr-04 17:30N 33°39' W 119°28'711.7
2017-Apr-04 16:54N 33°39' W 119°20'511.8
2017-Apr-04 16:30N 33°39' W 119°14'611.7
2017-Apr-04 15:59N 33°39' W 119°07'611.8
2017-Apr-04 15:30N 33°39' W 118°60'611.6
2017-Apr-04 15:00N 33°39' W 118°53'611.7
2017-Apr-04 14:30N 33°39' W 118°46'1211.3
2017-Apr-04 13:27N 33°39' W 118°32'511.4
2017-Apr-04 13:00N 33°39' W 118°25'611.4
2017-Apr-04 12:30N 33°39' W 118°19'5 9.1
2017-Apr-04 11:59N 33°42' W 118°15'3 5.2
2017-Apr-04 11:30N 33°44' W 118°17'1 0.3
2017-Apr-04 09:01N 33°45' W 118°16'0 0.0
2017-Apr-04 08:43N 33°45' W 118°16'0 0.0
2017-Apr-04 08:28N 33°45' W 118°16'0 0.0
2017-Apr-04 07:55N 33°45' W 118°16'0 0.0
2017-Apr-04 07:25N 33°45' W 118°16'0 0.0
2017-Apr-04 06:49N 33°45' W 118°16'0 0.0
2017-Apr-04 03:31N 33°45' W 118°16'0 0.0
2017-Apr-03 23:31N 33°45' W 118°16'0 0.0
2017-Apr-03 23:01N 33°45' W 118°16'0 0.0
2017-Apr-03 22:37N 33°45' W 118°16'0 0.0
2017-Apr-03 22:19N 33°45' W 118°16'0 0.0
2017-Apr-03 22:00N 33°45' W 118°16'0 0.0
2017-Apr-03 21:18N 33°45' W 118°16'0 0.1
2017-Apr-03 21:00N 33°45' W 118°16'0 0.0
2017-Apr-03 20:30N 33°45' W 118°16'0 0.0
2017-Apr-03 19:58N 33°45' W 118°16'0 0.0
2017-Apr-03 19:22N 33°45' W 118°16'0 0.0
2017-Apr-03 18:52N 33°45' W 118°16'0 0.0
2017-Apr-03 18:28N 33°45' W 118°16'0 0.0
2017-Apr-03 17:57N 33°45' W 118°16'0 0.0
2017-Apr-03 15:58N 33°45' W 118°16'0 0.0
2017-Apr-03 15:28N 33°45' W 118°16'0 0.0
2017-Apr-03 14:58N 33°45' W 118°16'0 0.0
2017-Apr-03 13:58N 33°45' W 118°16'0 0.0
2017-Apr-03 13:25N 33°45' W 118°16'0 0.0
2017-Apr-03 13:01N 33°45' W 118°16'0 0.0
2017-Apr-03 12:31N 33°45' W 118°16'0 0.0
2017-Apr-03 11:57N 33°45' W 118°16'0 0.0
2017-Apr-03 11:31N 33°45' W 118°16'0 0.0
2017-Apr-03 11:00N 33°45' W 118°16'0 0.0
2017-Apr-03 10:31N 33°45' W 118°16'0 0.0
2017-Apr-03 09:58N 33°45' W 118°16'0 0.0
2017-Apr-03 09:28N 33°45' W 118°16'0 0.0
2017-Apr-03 08:49N 33°45' W 118°16'0 0.0
2017-Apr-03 08:31N 33°45' W 118°16'0 0.0
2017-Apr-03 08:00N 33°45' W 118°16'0 0.0
2017-Apr-03 07:28N 33°45' W 118°16'0 0.0
2017-Apr-03 07:01N 33°45' W 118°16'0 0.0
2017-Apr-03 06:27N 33°45' W 118°16'0 0.0
2017-Apr-03 05:57N 33°45' W 118°16'0 0.0
2017-Apr-03 05:16N 33°45' W 118°16'0 0.0
2017-Apr-03 04:15N 33°45' W 118°16'0 0.0
2017-Apr-03 03:58N 33°45' W 118°16'0 0.0
2017-Apr-03 03:24N 33°45' W 118°16'0 0.0
2017-Apr-03 02:58N 33°45' W 118°16'0 0.0
2017-Apr-03 02:28N 33°45' W 118°16'0 0.0
2017-Apr-03 02:01N 33°45' W 118°16'0 0.0
2017-Apr-03 01:31N 33°45' W 118°16'0 0.0
2017-Apr-03 01:00N 33°45' W 118°16'0 0.0
2017-Apr-03 00:27N 33°45' W 118°16'0 0.0
2017-Apr-03 00:01N 33°45' W 118°16'0 0.0
2017-Apr-02 23:28N 33°45' W 118°16'0 0.0
2017-Apr-02 22:58N 33°45' W 118°16'0 0.0
2017-Apr-02 22:19N 33°45' W 118°16'0 0.0
2017-Apr-02 21:58N 33°45' W 118°16'0 0.0
2017-Apr-02 21:28N 33°45' W 118°16'0 0.0
2017-Apr-02 20:58N 33°45' W 118°16'0 0.0
2017-Apr-02 20:28N 33°45' W 118°16'0 0.0
2017-Apr-02 19:58N 33°45' W 118°16'0 0.0
2017-Apr-02 19:28N 33°45' W 118°16'0 0.0
2017-Apr-02 18:55N 33°45' W 118°16'0 0.0
2017-Apr-02 18:26N 33°45' W 118°16'0 0.0
2017-Apr-02 18:01N 33°45' W 118°16'0 0.0
2017-Apr-02 17:30N 33°45' W 118°16'0 0.0
2017-Apr-02 16:56N 33°45' W 118°16'0 0.0
2017-Apr-02 16:26N 33°45' W 118°16'0 0.0
2017-Apr-02 15:59N 33°45' W 118°16'0 0.0
2017-Apr-02 15:29N 33°45' W 118°16'0 0.0
2017-Apr-02 14:50N 33°45' W 118°16'0 0.0
2017-Apr-02 14:26N 33°45' W 118°16'0 0.0
2017-Apr-02 13:29N 33°45' W 118°16'0 0.0
2017-Apr-02 12:59N 33°45' W 118°16'0 0.0
2017-Apr-02 12:24N 33°45' W 118°16'0 0.0
2017-Apr-02 12:00N 33°45' W 118°16'0 0.3
2017-Apr-02 11:30N 33°45' W 118°16'3 5.6
2017-Apr-02 11:01N 33°42' W 118°15'4 7.4
2017-Apr-02 10:30N 33°39' W 118°14'2 4.9
2017-Apr-02 10:00N 33°36' W 118°15'510.8
2017-Apr-02 09:30N 33°36' W 118°21'611.5
2017-Apr-02 09:00N 33°36' W 118°28'611.5
2017-Apr-02 08:31N 33°37' W 118°35'611.5
2017-Apr-02 08:01N 33°37' W 118°42'611.6
2017-Apr-02 07:30N 33°37' W 118°49'611.6
2017-Apr-02 07:00N 33°37' W 118°56'611.6
2017-Apr-02 06:31N 33°37' W 119°03'611.5
2017-Apr-02 05:58N 33°37' W 119°10'511.7
2017-Apr-02 05:30N 33°37' W 119°17'611.8
2017-Apr-02 05:00N 33°37' W 119°24'611.7
2017-Apr-02 04:31N 33°36' W 119°31'611.7
2017-Apr-02 04:00N 33°36' W 119°38'611.7
2017-Apr-02 03:30N 33°37' W 119°45'611.7
2017-Apr-02 03:00N 33°37' W 119°52'611.6
2017-Apr-02 02:31N 33°37' W 119°59'611.9
2017-Apr-02 02:01N 33°37' W 120°06'612.3
2017-Apr-02 01:31N 33°37' W 120°14'612.4
2017-Apr-02 01:00N 33°37' W 120°21'611.8
2017-Apr-02 00:31N 33°37' W 120°28'612.0
2017-Apr-02 00:00N 33°37' W 120°35'612.0
2017-Apr-01 23:30N 33°37' W 120°43'612.0
2017-Apr-01 23:01N 33°37' W 120°50'612.0
2017-Apr-01 22:31N 33°37' W 120°57'612.2
2017-Apr-01 22:01N 33°37' W 121°04'713.0
2017-Apr-01 21:30N 33°37' W 121°12'713.1
2017-Apr-01 20:57N 33°37' W 121°21'613.4
2017-Apr-01 20:29N 33°37' W 121°28'613.4
2017-Apr-01 20:00N 33°37' W 121°36'713.5
2017-Apr-01 19:30N 33°37' W 121°44'713.1
2017-Apr-01 18:59N 33°37' W 121°52'612.7
2017-Apr-01 18:30N 33°37' W 121°60'1312.7
2017-Apr-01 17:30N 33°37' W 122°15'612.7
2017-Apr-01 17:00N 33°37' W 122°23'612.7
2017-Apr-01 16:30N 33°37' W 122°30'612.6
2017-Apr-01 16:00N 33°37' W 122°38'612.8
2017-Apr-01 15:30N 33°37' W 122°46'612.6
2017-Apr-01 15:00N 33°37' W 122°53'612.3
2017-Apr-01 14:30N 33°37' W 123°00'1212.2
2017-Apr-01 13:30N 33°37' W 123°15'612.0
2017-Apr-01 13:00N 33°37' W 123°23'612.0
2017-Apr-01 12:30N 33°37' W 123°30'611.7
2017-Apr-01 11:58N 33°37' W 123°37'511.7
2017-Apr-01 11:30N 33°37' W 123°44'611.8
2017-Apr-01 11:00N 33°37' W 123°51'611.6
2017-Apr-01 10:30N 33°37' W 123°58'8315.2
2017-Apr-01 05:01N 33°50' W 125°37'010.0
2017-Apr-01 05:00N 33°50' W 125°37'10119.2
2017-Mar-31 23:44N 34°15' W 127°35'418.2
2017-Mar-31 23:29N 34°16' W 127°40'817.0
2017-Mar-31 23:00N 34°18' W 127°50'816.7
2017-Mar-31 22:30N 34°20' W 127°60'1216.2
2017-Mar-31 21:45N 34°22' W 128°14'414.5
2017-Mar-31 21:28N 34°23' W 128°19'714.2
2017-Mar-31 21:00N 34°25' W 128°27'813.9
2017-Mar-31 20:27N 34°26' W 128°36'  
Track history (hours):
 
Tides and Currents Weather Stations Pressure Air Temp Water Temp Dewpoint Dewpoint Depression Visibility Wind Speed Wind Dir Waves Ship Positions

Hatsu Envoy

Last reported at 2017-Apr-08 07:55 UTC. Time now 2017-Apr-24 17:22 UTC.
Position N 38°10' W 123°54'.
Warning: this ship's position is 16 days out of date.

Type: Cargo ship. MMSI: 235414000.

Date/timePositionNaut miles runAvg speedWind from/ knotsBaromVisibWave heightAir tempDewpointWater temp
2017-Apr-08 07:55N 38°10' W 123°54'410.9
2017-Apr-08 07:30N 38°10' W 123°48'510.9
2017-Apr-08 07:00N 38°10' W 123°41'611.0
2017-Apr-08 06:30N 38°10' W 123°34'611.0
2017-Apr-08 06:00N 38°10' W 123°27'510.2
2017-Apr-08 05:30N 38°10' W 123°21'5 9.7
2017-Apr-08 05:00N 38°06' W 123°17'5 9.1
2017-Apr-08 04:30N 38°02' W 123°13'5 9.4
2017-Apr-08 04:00N 37°59' W 123°09'4 9.1
2017-Apr-08 03:30N 37°57' W 123°04'510.0
2017-Apr-08 03:00N 37°54' W 122°59'611.2
2017-Apr-08 02:30N 37°51' W 122°52'611.1
2017-Apr-08 02:00N 37°49' W 122°46'611.5
2017-Apr-08 01:30N 37°45' W 122°40'613.0
2017-Apr-08 01:00N 37°48' W 122°33'714.3
2017-Apr-08 00:30N 37°49' W 122°24'3 5.4
2017-Apr-08 00:00N 37°48' W 122°20'0 0.0
2017-Apr-07 23:30N 37°49' W 122°20'0 0.0
2017-Apr-07 23:00N 37°48' W 122°20'0 0.0
2017-Apr-07 22:30N 37°49' W 122°20'0 0.0
2017-Apr-07 22:00N 37°48' W 122°20'0 0.0
2017-Apr-07 21:29N 37°48' W 122°20'0 0.0
2017-Apr-07 21:00N 37°48' W 122°20'0 0.0
2017-Apr-07 20:30N 37°48' W 122°20'0 0.0
2017-Apr-07 19:58N 37°49' W 122°20'0 0.0
2017-Apr-07 19:28N 37°49' W 122°20'0 0.0
2017-Apr-07 18:58N 37°49' W 122°20'0 0.0
2017-Apr-07 18:28N 37°48' W 122°20'0 0.0
2017-Apr-07 17:58N 37°48' W 122°20'0 0.0
2017-Apr-07 17:28N 37°48' W 122°20'0 0.0
2017-Apr-07 16:58N 37°49' W 122°20'0 0.0
2017-Apr-07 16:28N 37°49' W 122°20'0 0.0
2017-Apr-07 15:58N 37°49' W 122°20'0 0.0
2017-Apr-07 15:28N 37°49' W 122°20'0 0.0
2017-Apr-07 14:58N 37°48' W 122°20'0 0.0
2017-Apr-07 14:28N 37°49' W 122°20'0 0.0
2017-Apr-07 13:28N 37°48' W 122°20'0 0.0
2017-Apr-07 12:58N 37°48' W 122°20'0 0.0
2017-Apr-07 12:28N 37°49' W 122°20'0 0.0
2017-Apr-07 11:58N 37°49' W 122°20'0 0.0
2017-Apr-07 11:28N 37°48' W 122°20'0 0.0
2017-Apr-07 10:58N 37°48' W 122°20'0 0.0
2017-Apr-07 10:28N 37°48' W 122°20'0 0.0
2017-Apr-07 09:58N 37°49' W 122°20'0 0.0
2017-Apr-07 09:28N 37°49' W 122°20'0 0.0
2017-Apr-07 08:58N 37°49' W 122°20'0 0.0
2017-Apr-07 08:28N 37°49' W 122°20'0 0.0
2017-Apr-07 07:58N 37°49' W 122°20'0 0.0
2017-Apr-07 07:28N 37°49' W 122°20'0 0.0
2017-Apr-07 06:58N 37°48' W 122°20'0 0.0
2017-Apr-07 06:28N 37°49' W 122°20'0 0.0
2017-Apr-07 05:58N 37°49' W 122°20'0 0.0
2017-Apr-07 05:28N 37°49' W 122°20'0 0.0
2017-Apr-07 04:58N 37°48' W 122°20'0 0.0
2017-Apr-07 04:28N 37°49' W 122°20'0 0.0
2017-Apr-07 03:58N 37°49' W 122°20'0 0.0
2017-Apr-07 03:28N 37°49' W 122°20'0 0.0
2017-Apr-07 02:58N 37°49' W 122°20'0 0.0
2017-Apr-07 02:31N 37°49' W 122°20'0 0.0
2017-Apr-07 01:59N 37°48' W 122°20'0 0.0
2017-Apr-07 01:29N 37°49' W 122°20'0 0.0
2017-Apr-07 00:59N 37°49' W 122°20'0 0.0
2017-Apr-07 00:29N 37°49' W 122°20'0 0.0
2017-Apr-06 23:59N 37°49' W 122°20'0 0.0
2017-Apr-06 23:29N 37°49' W 122°20'0 0.0
2017-Apr-06 22:59N 37°48' W 122°20'0 0.0
2017-Apr-06 22:29N 37°49' W 122°20'0 0.0
2017-Apr-06 21:59N 37°49' W 122°20'0 0.0
2017-Apr-06 21:29N 37°48' W 122°20'0 0.0
2017-Apr-06 20:59N 37°49' W 122°20'0 0.0
2017-Apr-06 20:29N 37°49' W 122°20'0 0.0
2017-Apr-06 19:59N 37°49' W 122°20'0 0.0
2017-Apr-06 19:29N 37°48' W 122°20'0 0.0
2017-Apr-06 19:00N 37°49' W 122°20'0 0.0
2017-Apr-06 18:31N 37°49' W 122°20'0 0.0
2017-Apr-06 18:00N 37°48' W 122°20'0 0.0
2017-Apr-06 17:30N 37°48' W 122°20'0 0.0
2017-Apr-06 17:01N 37°49' W 122°20'0 0.0
2017-Apr-06 16:31N 37°49' W 122°20'0 0.0
2017-Apr-06 16:00N 37°48' W 122°20'0 0.0
2017-Apr-06 15:30N 37°49' W 122°20'0 0.0
2017-Apr-06 15:00N 37°48' W 122°20'0 0.0
2017-Apr-06 14:30N 37°48' W 122°20'0 0.0
2017-Apr-06 13:30N 37°49' W 122°20'1 1.1
2017-Apr-06 13:00N 37°49' W 122°20'1 1.4
2017-Apr-06 12:31N 37°48' W 122°21'4 8.9
2017-Apr-06 12:01N 37°49' W 122°26'713.0
2017-Apr-06 11:30N 37°47' W 122°34'612.6
2017-Apr-06 11:01N 37°44' W 122°41'5 9.5
2017-Apr-06 10:30N 37°40' W 122°40'5 9.7
2017-Apr-06 10:00N 37°35' W 122°39'5 9.6
2017-Apr-06 09:30N 37°30' W 122°39'5 9.7
2017-Apr-06 09:00N 37°25' W 122°39'5 9.7
2017-Apr-06 08:30N 37°20' W 122°39'611.3
2017-Apr-06 08:00N 37°15' W 122°39'612.4
2017-Apr-06 07:30N 37°09' W 122°38'612.4
2017-Apr-06 07:01N 37°03' W 122°36'612.5
2017-Apr-06 06:30N 36°57' W 122°34'612.8
2017-Apr-06 06:00N 36°51' W 122°31'612.8
2017-Apr-06 05:30N 36°44' W 122°29'612.8
2017-Apr-06 05:00N 36°38' W 122°28'612.6
2017-Apr-06 04:30N 36°32' W 122°26'1 2.8
2017-Apr-06 04:00N 36°31' W 122°26'0 0.3
2017-Apr-06 03:30N 36°31' W 122°26'0 0.5
2017-Apr-06 03:00N 36°31' W 122°26'0 0.6
2017-Apr-06 02:30N 36°31' W 122°26'0 0.8
2017-Apr-06 02:00N 36°32' W 122°26'0 0.7
2017-Apr-06 01:30N 36°32' W 122°26'0 0.7
2017-Apr-06 01:00N 36°32' W 122°26'0 0.7
2017-Apr-06 00:30N 36°33' W 122°26'0 0.7
2017-Apr-06 00:00N 36°33' W 122°26'0 0.9
2017-Apr-05 23:30N 36°33' W 122°26'0 0.9
2017-Apr-05 23:00N 36°34' W 122°26'0 0.8
2017-Apr-05 22:30N 36°34' W 122°26'0 0.7
2017-Apr-05 22:00N 36°35' W 122°26'0 0.5
2017-Apr-05 21:30N 36°35' W 122°26'0 0.6
2017-Apr-05 21:00N 36°35' W 122°26'0 0.7
2017-Apr-05 20:30N 36°35' W 122°25'0 0.8
2017-Apr-05 20:00N 36°35' W 122°25'0 0.8
2017-Apr-05 19:30N 36°36' W 122°25'0 0.6
2017-Apr-05 19:00N 36°36' W 122°24'0 0.2
2017-Apr-05 18:30N 36°36' W 122°24'0 0.9
2017-Apr-05 18:00N 36°35' W 122°24'4 7.8
2017-Apr-05 17:30N 36°32' W 122°23'611.6
2017-Apr-05 17:00N 36°26' W 122°20'611.1
2017-Apr-05 16:30N 36°21' W 122°17'511.2
2017-Apr-05 16:00N 36°16' W 122°14'510.8
2017-Apr-05 15:30N 36°12' W 122°11'611.6
2017-Apr-05 15:00N 36°07' W 122°07'1212.1
2017-Apr-05 14:00N 35°56' W 121°59'612.2
2017-Apr-05 13:30N 35°51' W 121°55'611.8
2017-Apr-05 13:00N 35°46' W 121°51'612.0
2017-Apr-05 12:30N 35°41' W 121°48'612.2
2017-Apr-05 12:00N 35°35' W 121°45'611.8
2017-Apr-05 11:30N 35°30' W 121°41'611.5
2017-Apr-05 11:00N 35°25' W 121°38'611.5
2017-Apr-05 10:30N 35°20' W 121°35'611.4
2017-Apr-05 10:00N 35°15' W 121°31'611.1
2017-Apr-05 09:30N 35°10' W 121°28'611.1
2017-Apr-05 09:00N 35°05' W 121°25'510.7
2017-Apr-05 08:30N 35°01' W 121°22'611.1
2017-Apr-05 08:00N 34°56' W 121°19'611.3
2017-Apr-05 07:30N 34°51' W 121°16'611.6
2017-Apr-05 07:00N 34°46' W 121°12'611.2
2017-Apr-05 06:31N 34°41' W 121°09'611.3
2017-Apr-05 06:00N 34°36' W 121°06'611.3
2017-Apr-05 05:31N 34°31' W 121°03'611.2
2017-Apr-05 05:00N 34°26' W 120°60'611.4
2017-Apr-05 04:30N 34°20' W 120°56'510.9
2017-Apr-05 04:00N 34°16' W 120°53'510.8
2017-Apr-05 03:30N 34°11' W 120°50'510.8
2017-Apr-05 03:00N 34°06' W 120°47'611.3
2017-Apr-05 02:30N 34°01' W 120°44'611.0
2017-Apr-05 02:00N 33°56' W 120°41'611.1
2017-Apr-05 01:29N 33°52' W 120°36'511.1
2017-Apr-05 01:01N 33°48' W 120°32'611.1
2017-Apr-05 00:30N 33°44' W 120°27'610.9
2017-Apr-05 00:00N 33°40' W 120°22'510.3
2017-Apr-04 23:30N 33°36' W 120°18'1 1.7
2017-Apr-04 23:00N 33°36' W 120°19'1 1.0
2017-Apr-04 22:28N 33°36' W 120°20'1 3.2
2017-Apr-04 22:00N 33°36' W 120°18'611.8
2017-Apr-04 21:30N 33°37' W 120°11'612.1
2017-Apr-04 21:00N 33°38' W 120°04'611.8
2017-Apr-04 20:30N 33°39' W 119°57'4 7.1
2017-Apr-04 20:00N 33°40' W 119°53'0 0.9
2017-Apr-04 19:30N 33°39' W 119°53'3 5.5
2017-Apr-04 19:00N 33°39' W 119°49'611.8
2017-Apr-04 18:30N 33°38' W 119°42'611.9
2017-Apr-04 18:00N 33°38' W 119°35'611.8
2017-Apr-04 17:30N 33°39' W 119°28'711.7
2017-Apr-04 16:54N 33°39' W 119°20'511.8
2017-Apr-04 16:30N 33°39' W 119°14'611.7
2017-Apr-04 15:59N 33°39' W 119°07'611.8
2017-Apr-04 15:30N 33°39' W 118°60'611.6
2017-Apr-04 15:00N 33°39' W 118°53'611.7
2017-Apr-04 14:30N 33°39' W 118°46'1211.3
2017-Apr-04 13:27N 33°39' W 118°32'511.4
2017-Apr-04 13:00N 33°39' W 118°25'611.4
2017-Apr-04 12:30N 33°39' W 118°19'5 9.1
2017-Apr-04 11:59N 33°42' W 118°15'3 5.2
2017-Apr-04 11:30N 33°44' W 118°17'1 0.3
2017-Apr-04 09:01N 33°45' W 118°16'0 0.0
2017-Apr-04 08:43N 33°45' W 118°16'0 0.0
2017-Apr-04 08:28N 33°45' W 118°16'0 0.0
2017-Apr-04 07:55N 33°45' W 118°16'0 0.0
2017-Apr-04 07:25N 33°45' W 118°16'0 0.0
2017-Apr-04 06:49N 33°45' W 118°16'0 0.0
2017-Apr-04 03:31N 33°45' W 118°16'0 0.0
2017-Apr-03 23:31N 33°45' W 118°16'0 0.0
2017-Apr-03 23:01N 33°45' W 118°16'0 0.0
2017-Apr-03 22:37N 33°45' W 118°16'0 0.0
2017-Apr-03 22:19N 33°45' W 118°16'0 0.0
2017-Apr-03 22:00N 33°45' W 118°16'0 0.0
2017-Apr-03 21:18N 33°45' W 118°16'0 0.1
2017-Apr-03 21:00N 33°45' W 118°16'0 0.0
2017-Apr-03 20:30N 33°45' W 118°16'0 0.0
2017-Apr-03 19:58N 33°45' W 118°16'0 0.0
2017-Apr-03 19:22N 33°45' W 118°16'0 0.0
2017-Apr-03 18:52N 33°45' W 118°16'0 0.0
2017-Apr-03 18:28N 33°45' W 118°16'0 0.0
2017-Apr-03 17:57N 33°45' W 118°16'0 0.0
2017-Apr-03 15:58N 33°45' W 118°16'0 0.0
2017-Apr-03 15:28N 33°45' W 118°16'0 0.0
2017-Apr-03 14:58N 33°45' W 118°16'0 0.0
2017-Apr-03 13:58N 33°45' W 118°16'0 0.0
2017-Apr-03 13:25N 33°45' W 118°16'0 0.0
2017-Apr-03 13:01N 33°45' W 118°16'0 0.0
2017-Apr-03 12:31N 33°45' W 118°16'0 0.0
2017-Apr-03 11:57N 33°45' W 118°16'0 0.0
2017-Apr-03 11:31N 33°45' W 118°16'0 0.0
2017-Apr-03 11:00N 33°45' W 118°16'0 0.0
2017-Apr-03 10:31N 33°45' W 118°16'0 0.0
2017-Apr-03 09:58N 33°45' W 118°16'0 0.0
2017-Apr-03 09:28N 33°45' W 118°16'0 0.0
2017-Apr-03 08:49N 33°45' W 118°16'0 0.0
2017-Apr-03 08:31N 33°45' W 118°16'0 0.0
2017-Apr-03 08:00N 33°45' W 118°16'0 0.0
2017-Apr-03 07:28N 33°45' W 118°16'0 0.0
2017-Apr-03 07:01N 33°45' W 118°16'0 0.0
2017-Apr-03 06:27N 33°45' W 118°16'0 0.0
2017-Apr-03 05:57N 33°45' W 118°16'0 0.0
2017-Apr-03 05:16N 33°45' W 118°16'0 0.0
2017-Apr-03 04:15N 33°45' W 118°16'0 0.0
2017-Apr-03 03:58N 33°45' W 118°16'0 0.0
2017-Apr-03 03:24N 33°45' W 118°16'0 0.0
2017-Apr-03 02:58N 33°45' W 118°16'0 0.0
2017-Apr-03 02:28N 33°45' W 118°16'0 0.0
2017-Apr-03 02:01N 33°45' W 118°16'0 0.0
2017-Apr-03 01:31N 33°45' W 118°16'0 0.0
2017-Apr-03 01:00N 33°45' W 118°16'0 0.0
2017-Apr-03 00:27N 33°45' W 118°16'0 0.0
2017-Apr-03 00:01N 33°45' W 118°16'0 0.0
2017-Apr-02 23:28N 33°45' W 118°16'0 0.0
2017-Apr-02 22:58N 33°45' W 118°16'0 0.0
2017-Apr-02 22:19N 33°45' W 118°16'0 0.0
2017-Apr-02 21:58N 33°45' W 118°16'0 0.0
2017-Apr-02 21:28N 33°45' W 118°16'0 0.0
2017-Apr-02 20:58N 33°45' W 118°16'0 0.0
2017-Apr-02 20:28N 33°45' W 118°16'0 0.0
2017-Apr-02 19:58N 33°45' W 118°16'0 0.0
2017-Apr-02 19:28N 33°45' W 118°16'0 0.0
2017-Apr-02 18:55N 33°45' W 118°16'0 0.0
2017-Apr-02 18:26N 33°45' W 118°16'0 0.0
2017-Apr-02 18:01N 33°45' W 118°16'0 0.0
2017-Apr-02 17:30N 33°45' W 118°16'0 0.0
2017-Apr-02 16:56N 33°45' W 118°16'0 0.0
2017-Apr-02 16:26N 33°45' W 118°16'0 0.0
2017-Apr-02 15:59N 33°45' W 118°16'0 0.0
2017-Apr-02 15:29N 33°45' W 118°16'0 0.0
2017-Apr-02 14:50N 33°45' W 118°16'0 0.0
2017-Apr-02 14:26N 33°45' W 118°16'0 0.0
2017-Apr-02 13:29N 33°45' W 118°16'0 0.0
2017-Apr-02 12:59N 33°45' W 118°16'0 0.0
2017-Apr-02 12:24N 33°45' W 118°16'0 0.0
2017-Apr-02 12:00N 33°45' W 118°16'0 0.3
2017-Apr-02 11:30N 33°45' W 118°16'3 5.6
2017-Apr-02 11:01N 33°42' W 118°15'4 7.4
2017-Apr-02 10:30N 33°39' W 118°14'2 4.9
2017-Apr-02 10:00N 33°36' W 118°15'510.8
2017-Apr-02 09:30N 33°36' W 118°21'611.5
2017-Apr-02 09:00N 33°36' W 118°28'611.5
2017-Apr-02 08:31N 33°37' W 118°35'611.5
2017-Apr-02 08:01N 33°37' W 118°42'611.6
2017-Apr-02 07:30N 33°37' W 118°49'611.6
2017-Apr-02 07:00N 33°37' W 118°56'611.6
2017-Apr-02 06:31N 33°37' W 119°03'611.5
2017-Apr-02 05:58N 33°37' W 119°10'511.7
2017-Apr-02 05:30N 33°37' W 119°17'611.8
2017-Apr-02 05:00N 33°37' W 119°24'611.7
2017-Apr-02 04:31N 33°36' W 119°31'611.7
2017-Apr-02 04:00N 33°36' W 119°38'611.7
2017-Apr-02 03:30N 33°37' W 119°45'611.7
2017-Apr-02 03:00N 33°37' W 119°52'611.6
2017-Apr-02 02:31N 33°37' W 119°59'611.9
2017-Apr-02 02:01N 33°37' W 120°06'612.3
2017-Apr-02 01:31N 33°37' W 120°14'612.4
2017-Apr-02 01:00N 33°37' W 120°21'611.8
2017-Apr-02 00:31N 33°37' W 120°28'612.0
2017-Apr-02 00:00N 33°37' W 120°35'612.0
2017-Apr-01 23:30N 33°37' W 120°43'612.0
2017-Apr-01 23:01N 33°37' W 120°50'612.0
2017-Apr-01 22:31N 33°37' W 120°57'612.2
2017-Apr-01 22:01N 33°37' W 121°04'713.0
2017-Apr-01 21:30N 33°37' W 121°12'713.1
2017-Apr-01 20:57N 33°37' W 121°21'613.4
2017-Apr-01 20:29N 33°37' W 121°28'613.4
2017-Apr-01 20:00N 33°37' W 121°36'713.5
2017-Apr-01 19:30N 33°37' W 121°44'713.1
2017-Apr-01 18:59N 33°37' W 121°52'612.7
2017-Apr-01 18:30N 33°37' W 121°60'1312.7
2017-Apr-01 17:30N 33°37' W 122°15'612.7
2017-Apr-01 17:00N 33°37' W 122°23'612.7
2017-Apr-01 16:30N 33°37' W 122°30'612.6
2017-Apr-01 16:00N 33°37' W 122°38'612.8
2017-Apr-01 15:30N 33°37' W 122°46'612.6
2017-Apr-01 15:00N 33°37' W 122°53'612.3
2017-Apr-01 14:30N 33°37' W 123°00'1212.2
2017-Apr-01 13:30N 33°37' W 123°15'612.0
2017-Apr-01 13:00N 33°37' W 123°23'612.0
2017-Apr-01 12:30N 33°37' W 123°30'611.7
2017-Apr-01 11:58N 33°37' W 123°37'511.7
2017-Apr-01 11:30N 33°37' W 123°44'611.8
2017-Apr-01 11:00N 33°37' W 123°51'611.6
2017-Apr-01 10:30N 33°37' W 123°58'8315.2
2017-Apr-01 05:01N 33°50' W 125°37'010.0
2017-Apr-01 05:00N 33°50' W 125°37'10119.2
2017-Mar-31 23:44N 34°15' W 127°35'418.2
2017-Mar-31 23:29N 34°16' W 127°40'817.0
2017-Mar-31 23:00N 34°18' W 127°50'816.7
2017-Mar-31 22:30N 34°20' W 127°60'1216.2
2017-Mar-31 21:45N 34°22' W 128°14'414.5
2017-Mar-31 21:28N 34°23' W 128°19'714.2
2017-Mar-31 21:00N 34°25' W 128°27'813.9
2017-Mar-31 20:27N 34°26' W 128°36'  

Dump ship's entire track history